Time;durP1;ratioP1;P1;durP2;ratioP2;P2;SDS_P1;SDS_P2;PMS_P1;PMS_P2;Temp;Humidity;BMP_temperature;BMP_pressure;BME280_temperature;BME280_humidity;BME280_pressure;Samples;Min_cycle;Max_cycle;Signal;HPM_P1;HPM_P2
2023/05/03 00:01:42;;;;;;;28.48;25.65;;;9.60;99.90;;;;;;5270247;28;20744;-73
2023/05/03 00:04:17;;;;;;;26.90;24.88;;;9.50;99.90;;;;;;5269232;28;20479;-73
2023/05/03 00:06:49;;;;;;;29.42;26.90;;;9.60;99.90;;;;;;5269357;28;20406;-73
2023/05/03 00:09:20;;;;;;;27.63;25.27;;;9.50;99.90;;;;;;5270572;28;20062;-72
2023/05/03 00:11:52;;;;;;;27.55;25.40;;;9.50;99.90;;;;;;5270529;28;20487;-72
2023/05/03 00:14:23;;;;;;;29.23;26.95;;;9.50;99.90;;;;;;5270325;28;20106;-73
2023/05/03 00:16:53;;;;;;;27.77;25.55;;;9.00;99.90;;;;;;5270372;28;20039;-73
2023/05/03 00:19:28;;;;;;;27.20;25.10;;;9.30;99.90;;;;;;5269282;28;20032;-73
2023/05/03 00:21:59;;;;;;;28.75;26.02;;;9.30;99.90;;;;;;5270388;28;20429;-72
2023/05/03 00:24:30;;;;;;;29.50;27.20;;;9.20;99.90;;;;;;5270346;28;20028;-73
2023/05/03 00:27:03;;;;;;;28.75;26.45;;;9.50;99.90;;;;;;5270239;28;20369;-73
2023/05/03 00:29:34;;;;;;;31.83;29.08;;;9.40;99.90;;;;;;5270216;28;20032;-72
2023/05/03 00:32:05;;;;;;;31.85;29.48;;;9.20;99.90;;;;;;5269860;28;20040;-73
2023/05/03 00:34:36;;;;;;;31.85;29.10;;;9.40;99.90;;;;;;5268675;28;20032;-73
2023/05/03 00:37:08;;;;;;;34.13;31.23;;;9.60;99.90;;;;;;5270079;28;20023;-73
2023/05/03 00:39:39;;;;;;;33.03;30.10;;;9.20;99.90;;;;;;5269820;28;20029;-73
2023/05/03 00:42:09;;;;;;;31.35;28.52;;;9.30;99.90;;;;;;5268125;28;20081;-72
2023/05/03 00:44:40;;;;;;;31.65;28.20;;;9.50;99.90;;;;;;5270030;28;20024;-73
2023/05/03 00:47:12;;;;;;;31.75;29.02;;;9.60;99.90;;;;;;5268733;28;20053;-72
2023/05/03 00:49:43;;;;;;;30.30;27.70;;;9.60;99.90;;;;;;5269653;28;20387;-73
2023/05/03 00:52:15;;;;;;;30.80;28.55;;;9.40;99.90;;;;;;5269600;28;20082;-73
2023/05/03 00:54:46;;;;;;;31.38;28.67;;;9.60;99.90;;;;;;5269901;28;20020;-72
2023/05/03 00:57:17;;;;;;;30.52;28.02;;;9.70;99.90;;;;;;5270154;28;20031;-73
2023/05/03 00:59:48;;;;;;;32.28;29.58;;;9.50;99.90;;;;;;5270540;28;20387;-73
2023/05/03 01:02:20;;;;;;;31.70;28.80;;;9.70;99.90;;;;;;5269849;28;20040;-73
2023/05/03 01:04:52;;;;;;;32.88;29.80;;;9.60;99.90;;;;;;5269887;28;20724;-73
2023/05/03 01:07:46;;;;;;;31.30;28.75;;;9.60;99.90;;;;;;5269683;28;20035;-72
2023/05/03 01:10:22;;;;;;;29.63;27.25;;;9.60;99.90;;;;;;5269456;28;20032;-72
2023/05/03 01:13:03;;;;;;;30.05;27.17;;;9.90;99.90;;;;;;5269192;28;20036;-73
2023/05/03 01:15:55;;;;;;;29.90;27.25;;;9.90;99.90;;;;;;5269452;28;20060;-73
2023/05/03 01:18:33;;;;;;;31.33;28.65;;;9.90;99.90;;;;;;5269351;28;20034;-73
2023/05/03 01:21:05;;;;;;;28.88;26.38;;;9.90;99.90;;;;;;5269216;28;20497;-73
2023/05/03 01:23:52;;;;;;;29.27;26.67;;;9.90;99.90;;;;;;5269097;28;20028;-73
2023/05/03 01:26:26;;;;;;;28.88;26.50;;;9.80;99.90;;;;;;5269075;28;20024;-73
2023/05/03 01:28:57;;;;;;;30.65;28.15;;;9.90;99.90;;;;;;5269007;28;20032;-72
2023/05/03 01:31:57;;;;;;;31.85;29.15;;;9.70;99.90;;;;;;5267666;28;20032;-72
2023/05/03 01:34:48;;;;;;;32.42;29.52;;;9.60;99.90;;;;;;5265812;28;20134;-73
2023/05/03 01:37:20;;;;;;;31.77;28.83;;;9.70;99.90;;;;;;5269017;28;20031;-72
2023/05/03 01:40:02;;;;;;;27.50;25.10;;;9.70;99.90;;;;;;5268693;28;20024;-72
2023/05/03 01:42:36;;;;;;;28.23;25.75;;;9.50;99.90;;;;;;5268715;28;20043;-72
2023/05/03 01:45:08;;;;;;;27.83;25.42;;;9.80;99.90;;;;;;5268588;28;20376;-73
2023/05/03 01:47:39;;;;;;;28.75;26.15;;;9.80;99.90;;;;;;5268453;28;20021;-73
2023/05/03 02:55:45;;;;;;;31.27;28.65;;;9.60;99.90;;;;;;5306826;27;20487;-74
2023/05/03 02:58:16;;;;;;;27.23;24.83;;;9.90;99.90;;;;;;5307519;28;20019;-73
2023/05/03 03:00:47;;;;;;;27.77;25.08;;;9.90;99.90;;;;;;5307121;28;20030;-73
2023/05/03 03:03:17;;;;;;;29.63;26.92;;;9.80;99.90;;;;;;5306905;28;20492;-73
2023/05/03 03:05:48;;;;;;;28.38;25.88;;;9.90;99.90;;;;;;5307114;28;20466;-73
2023/05/03 03:08:19;;;;;;;28.85;26.13;;;9.80;99.90;;;;;;5307369;28;20096;-73
2023/05/03 03:10:50;;;;;;;28.10;25.58;;;9.80;99.90;;;;;;5307051;28;20035;-73
2023/05/03 03:13:21;;;;;;;29.27;26.65;;;9.90;99.90;;;;;;5306808;28;20080;-73
2023/05/03 03:15:51;;;;;;;27.95;25.02;;;9.80;99.90;;;;;;5306389;28;20059;-73
2023/05/03 03:18:22;;;;;;;28.38;26.10;;;9.90;99.90;;;;;;5306474;28;20084;-73
2023/05/03 03:20:53;;;;;;;29.25;26.48;;;9.90;99.90;;;;;;5306253;28;20023;-74
2023/05/03 03:23:23;;;;;;;29.00;26.45;;;9.90;99.90;;;;;;5306084;28;20024;-73
2023/05/03 03:25:54;;;;;;;27.23;24.83;;;10.00;99.90;;;;;;5306238;28;20043;-73
2023/05/03 03:28:25;;;;;;;27.42;24.83;;;10.30;99.90;;;;;;5288006;28;20489;-73
2023/05/03 03:30:56;;;;;;;25.77;23.48;;;10.20;99.90;;;;;;5306059;28;20030;-73
2023/05/03 03:33:27;;;;;;;25.52;23.02;;;10.40;99.90;;;;;;5306010;28;20023;-73
2023/05/03 03:35:57;;;;;;;26.33;22.10;;;10.50;99.90;;;;;;5306009;28;20419;-73
2023/05/03 03:38:29;;;;;;;25.10;22.77;;;10.60;99.90;;;;;;5306081;28;20098;-74
2023/05/03 03:40:59;;;;;;;27.42;25.08;;;10.70;99.90;;;;;;5305830;28;20019;-73
2023/05/03 03:43:30;;;;;;;25.98;23.42;;;10.80;99.90;;;;;;5305821;28;20038;-73
2023/05/03 03:46:01;;;;;;;26.60;24.30;;;10.90;99.90;;;;;;5305781;28;20054;-73
2023/05/03 03:48:32;;;;;;;27.55;25.13;;;10.90;99.90;;;;;;5305753;28;20019;-73
2023/05/03 03:51:03;;;;;;;28.05;25.88;;;10.90;99.90;;;;;;5305839;28;20538;-74
2023/05/03 03:53:34;;;;;;;28.38;26.13;;;11.00;99.90;;;;;;5305297;28;20043;-73
2023/05/03 03:56:05;;;;;;;27.50;25.17;;;11.00;99.90;;;;;;5294860;28;20088;-73
2023/05/03 03:58:36;;;;;;;29.35;26.85;;;11.10;99.90;;;;;;5291388;28;20024;-73
2023/05/03 04:01:07;;;;;;;29.00;26.38;;;11.20;99.90;;;;;;5291305;28;20027;-71
2023/05/03 04:03:37;;;;;;;30.48;28.08;;;11.20;99.90;;;;;;5291476;28;20040;-71
2023/05/03 04:06:08;;;;;;;28.35;25.65;;;11.30;99.90;;;;;;5291466;28;20077;-70
2023/05/03 04:08:40;;;;;;;29.15;26.75;;;11.40;99.90;;;;;;5291250;28;20055;-72
2023/05/03 04:11:11;;;;;;;30.42;27.42;;;11.40;99.90;;;;;;5291255;28;20059;-70
2023/05/03 04:13:42;;;;;;;28.00;25.30;;;11.40;99.90;;;;;;5291127;28;20086;-71
2023/05/03 04:16:14;;;;;;;30.92;28.35;;;11.50;99.90;;;;;;5290972;28;20110;-72
2023/05/03 04:18:45;;;;;;;29.05;26.70;;;11.60;99.90;;;;;;5291314;28;20375;-72
2023/05/03 04:21:15;;;;;;;29.05;26.55;;;11.60;99.90;;;;;;5291327;28;20047;-71
2023/05/03 04:23:46;;;;;;;29.77;27.20;;;11.60;99.90;;;;;;5290702;28;20533;-73
2023/05/03 04:26:17;;;;;;;32.58;29.95;;;11.80;99.90;;;;;;5290817;28;20419;-72
2023/05/03 04:28:50;;;;;;;33.50;30.73;;;11.90;99.90;;;;;;5290665;28;20019;-71
2023/05/03 04:31:21;;;;;;;34.17;31.45;;;12.10;99.90;;;;;;5290792;28;20506;-72
2023/05/03 04:33:52;;;;;;;35.40;32.10;;;12.10;99.90;;;;;;5290635;28;20020;-71
2023/05/03 04:36:25;;;;;;;35.33;32.38;;;12.20;99.90;;;;;;5290638;28;20092;-72
2023/05/03 04:38:56;;;;;;;35.15;32.55;;;12.30;99.90;;;;;;5290576;28;20030;-72
2023/05/03 04:41:27;;;;;;;32.08;29.83;;;12.40;99.90;;;;;;5290599;28;20023;-73
2023/05/03 04:43:57;;;;;;;32.47;30.05;;;12.60;99.90;;;;;;5290445;28;20047;-71
2023/05/03 04:46:28;;;;;;;33.83;31.17;;;12.70;99.90;;;;;;5290360;28;20024;-71
2023/05/03 04:48:59;;;;;;;34.22;31.52;;;12.70;99.90;;;;;;5290620;28;20011;-71
2023/05/03 04:51:30;;;;;;;35.63;32.72;;;12.90;99.90;;;;;;5290359;28;20093;-71
2023/05/03 04:54:01;;;;;;;33.50;31.10;;;13.10;99.90;;;;;;5290064;28;20498;-71
2023/05/03 04:56:34;;;;;;;33.60;30.80;;;13.10;99.90;;;;;;5290321;28;20043;-73
2023/05/03 04:59:05;;;;;;;29.85;27.63;;;13.40;99.90;;;;;;5290481;28;20024;-74
2023/05/03 05:01:36;;;;;;;32.45;29.98;;;13.40;99.90;;;;;;5290474;28;20056;-71
2023/05/03 05:04:06;;;;;;;28.70;26.67;;;13.70;99.90;;;;;;5290155;28;20035;-71
2023/05/03 05:06:38;;;;;;;29.13;26.88;;;13.60;99.90;;;;;;5289135;28;20107;-73
2023/05/03 05:09:22;;;;;;;25.33;23.33;;;13.70;99.90;;;;;;5290012;28;20027;-72
2023/05/03 05:11:54;;;;;;;27.75;25.60;;;13.60;99.90;;;;;;5289973;28;20102;-72
2023/05/03 05:14:27;;;;;;;27.00;25.05;;;13.60;99.90;;;;;;5289767;28;20035;-73
2023/05/03 05:16:58;;;;;;;28.85;26.75;;;13.50;99.90;;;;;;5289978;28;20024;-72
2023/05/03 05:19:29;;;;;;;27.85;25.75;;;13.50;99.90;;;;;;5289987;28;20046;-72
2023/05/03 05:22:00;;;;;;;27.75;25.63;;;13.60;99.90;;;;;;5289750;28;20027;-72
2023/05/03 05:24:30;;;;;;;28.25;26.10;;;13.60;99.90;;;;;;5289471;28;20031;-71
2023/05/03 05:27:01;;;;;;;28.10;25.83;;;13.60;99.90;;;;;;5289615;28;20022;-71
2023/05/03 05:29:32;;;;;;;28.50;26.40;;;13.70;99.90;;;;;;5289605;28;20039;-70
2023/05/03 05:32:04;;;;;;;29.95;27.90;;;13.70;99.90;;;;;;5289630;28;20023;-73
2023/05/03 05:34:35;;;;;;;28.92;26.55;;;13.70;99.90;;;;;;5289613;28;20055;-73
2023/05/03 05:37:06;;;;;;;31.77;29.17;;;13.70;99.90;;;;;;5289357;28;20058;-71
2023/05/03 05:39:36;;;;;;;29.20;26.88;;;13.70;99.90;;;;;;5289825;28;20069;-71
2023/05/03 05:42:07;;;;;;;28.45;26.35;;;14.00;99.90;;;;;;5289442;28;20028;-71
2023/05/03 05:44:38;;;;;;;27.83;25.92;;;14.20;99.90;;;;;;5288961;28;20046;-73
2023/05/03 05:47:09;;;;;;;27.35;25.30;;;14.30;99.90;;;;;;5289142;28;20114;-72
2023/05/03 05:49:40;;;;;;;26.10;24.02;;;14.40;99.90;;;;;;5289535;28;20046;-73
2023/05/03 05:52:11;;;;;;;25.75;23.67;;;14.40;99.90;;;;;;5289139;28;20027;-73
2023/05/03 05:54:42;;;;;;;26.90;24.70;;;14.50;99.90;;;;;;5289055;28;20051;-72
2023/05/03 05:57:12;;;;;;;27.50;25.20;;;14.40;99.90;;;;;;5289060;28;20023;-74
2023/05/03 05:59:43;;;;;;;25.65;23.55;;;14.30;99.90;;;;;;5271066;28;20430;-73
2023/05/03 06:02:21;;;;;;;27.08;25.15;;;14.20;99.90;;;;;;5289051;28;20023;-72
2023/05/03 06:04:52;;;;;;;30.58;28.05;;;14.10;99.90;;;;;;5288946;28;20432;-71
2023/05/03 06:07:23;;;;;;;32.30;29.52;;;14.10;99.90;;;;;;5288846;28;20023;-72
2023/05/03 06:09:54;;;;;;;30.38;27.83;;;14.10;99.90;;;;;;5288899;28;20054;-73
2023/05/03 06:12:26;;;;;;;32.13;29.85;;;14.10;99.90;;;;;;5288826;28;20023;-71
2023/05/03 06:14:57;;;;;;;26.85;24.85;;;14.10;99.90;;;;;;5288741;28;20028;-71
2023/05/03 06:17:28;;;;;;;31.65;29.30;;;14.10;99.90;;;;;;5288699;28;20092;-71
2023/05/03 06:19:58;;;;;;;29.80;27.60;;;14.20;99.90;;;;;;5288481;28;20039;-71
2023/05/03 06:22:29;;;;;;;29.75;27.23;;;14.20;99.90;;;;;;5288722;28;20023;-72
2023/05/03 06:25:00;;;;;;;28.73;26.58;;;14.20;99.90;;;;;;5288609;28;20047;-72
2023/05/03 06:27:31;;;;;;;27.23;25.25;;;14.30;99.90;;;;;;5288709;28;20031;-71
2023/05/03 06:30:02;;;;;;;26.88;24.90;;;14.30;99.90;;;;;;5288624;28;20027;-70
2023/05/03 06:32:33;;;;;;;29.33;27.02;;;14.30;99.90;;;;;;5288803;28;20014;-72
2023/05/03 06:35:04;;;;;;;25.42;23.40;;;14.30;99.90;;;;;;5288958;28;20043;-72
2023/05/03 06:37:35;;;;;;;25.45;23.30;;;14.40;99.90;;;;;;5289085;28;20031;-72
2023/05/03 06:40:07;;;;;;;26.52;24.25;;;14.50;99.90;;;;;;5289092;28;20024;-72
2023/05/03 06:42:37;;;;;;;24.38;22.27;;;14.60;99.90;;;;;;5289089;28;20012;-70
2023/05/03 06:45:09;;;;;;;25.67;23.48;;;14.50;99.90;;;;;;5288971;28;20405;-71
2023/05/03 06:47:41;;;;;;;24.55;21.85;;;14.50;99.90;;;;;;5289020;28;20621;-72
2023/05/03 06:50:12;;;;;;;25.25;22.92;;;14.50;99.90;;;;;;5288640;28;20027;-71
2023/05/03 06:52:43;;;;;;;25.83;23.77;;;14.60;99.90;;;;;;5288629;28;20107;-72
2023/05/03 06:55:14;;;;;;;27.20;24.88;;;14.60;99.90;;;;;;5288259;28;20138;-72
2023/05/03 06:57:47;;;;;;;25.65;23.67;;;14.60;99.90;;;;;;5288594;28;20027;-72
2023/05/03 07:00:19;;;;;;;24.52;22.23;;;14.60;99.90;;;;;;5288307;28;20007;-71
2023/05/03 07:02:50;;;;;;;25.23;23.05;;;14.90;99.90;;;;;;5288528;28;20509;-72
2023/05/03 07:05:21;;;;;;;25.92;23.50;;;14.90;99.90;;;;;;5288197;28;20036;-72
2023/05/03 07:07:52;;;;;;;25.75;23.80;;;15.00;99.90;;;;;;5288184;28;20019;-71
2023/05/03 07:10:24;;;;;;;23.55;21.75;;;15.00;99.90;;;;;;5288354;28;20073;-71
2023/05/03 07:12:55;;;;;;;25.80;23.63;;;15.10;99.90;;;;;;5288193;28;20054;-73
2023/05/03 07:15:25;;;;;;;25.52;23.35;;;15.20;99.90;;;;;;5288184;28;20028;-72
2023/05/03 07:17:56;;;;;;;23.02;21.00;;;15.10;99.90;;;;;;5288014;28;20110;-71
2023/05/03 07:20:27;;;;;;;22.83;21.02;;;15.10;99.90;;;;;;5288173;28;20055;-72
2023/05/03 07:23:00;;;;;;;22.23;20.08;;;14.90;99.90;;;;;;5287896;28;20024;-73
2023/05/03 07:25:32;;;;;;;24.92;21.00;;;15.00;99.90;;;;;;5288055;28;20031;-73
2023/05/03 07:28:03;;;;;;;23.65;21.58;;;15.10;99.90;;;;;;5287988;28;20023;-71
2023/05/03 07:30:33;;;;;;;24.10;22.25;;;15.10;99.90;;;;;;5289542;28;20024;-73
2023/05/03 07:33:05;;;;;;;23.67;21.77;;;15.20;99.90;;;;;;5292008;28;20023;-73
2023/05/03 07:35:35;;;;;;;23.15;21.13;;;15.20;99.90;;;;;;5291907;28;20075;-71
2023/05/03 07:38:06;;;;;;;21.27;19.23;;;15.20;99.90;;;;;;5291852;28;20502;-72
2023/05/03 07:40:37;;;;;;;22.13;20.27;;;15.00;99.90;;;;;;5291747;28;20027;-71
2023/05/03 07:43:09;;;;;;;22.40;20.60;;;15.00;99.90;;;;;;5291626;28;20111;-71
2023/05/03 07:45:40;;;;;;;24.75;22.35;;;15.00;99.90;;;;;;5291615;28;20027;-73
2023/05/03 07:48:10;;;;;;;23.38;21.17;;;15.00;99.90;;;;;;5291702;28;20649;-72
2023/05/03 07:50:42;;;;;;;24.00;22.10;;;15.00;99.90;;;;;;5291569;28;20110;-72
2023/05/03 07:53:14;;;;;;;22.92;21.00;;;15.00;99.90;;;;;;5291309;28;20127;-73
2023/05/03 07:55:45;;;;;;;24.27;21.58;;;15.10;99.90;;;;;;5291461;28;20032;-72
2023/05/03 07:58:15;;;;;;;22.40;20.45;;;15.20;99.90;;;;;;5291807;28;20031;-72
2023/05/03 08:00:46;;;;;;;22.83;20.80;;;15.40;99.90;;;;;;5291423;28;20031;-72
2023/05/03 08:03:17;;;;;;;22.67;20.23;;;15.30;99.90;;;;;;5291275;28;20028;-71
2023/05/03 08:05:48;;;;;;;24.83;22.77;;;15.30;99.90;;;;;;5291427;28;20027;-71
2023/05/03 08:08:19;;;;;;;24.95;22.65;;;15.40;99.90;;;;;;5291162;28;20419;-71
2023/05/03 08:10:51;;;;;;;26.30;24.13;;;15.40;99.90;;;;;;5291150;28;20600;-73
2023/05/03 08:13:22;;;;;;;27.25;25.02;;;15.40;99.90;;;;;;5291127;28;20016;-71
2023/05/03 08:15:53;;;;;;;24.20;22.15;;;15.90;99.90;;;;;;5291085;28;20455;-71
2023/05/03 08:18:24;;;;;;;23.38;21.50;;;16.60;99.90;;;;;;5291085;28;20031;-72
2023/05/03 08:20:55;;;;;;;24.90;22.48;;;16.60;99.90;;;;;;5290923;28;20023;-70
2023/05/03 08:23:26;;;;;;;24.98;22.98;;;16.60;99.90;;;;;;5290809;28;20382;-70
2023/05/03 08:25:57;;;;;;;24.58;22.30;;;16.30;99.90;;;;;;5290776;28;20043;-72
2023/05/03 08:28:29;;;;;;;23.83;21.80;;;16.30;99.90;;;;;;5290971;28;20023;-72
2023/05/03 08:31:03;;;;;;;22.55;20.52;;;16.90;99.90;;;;;;5290930;28;20078;-71
2023/05/03 08:33:34;;;;;;;27.55;25.42;;;17.10;99.90;;;;;;5290795;28;20027;-73
2023/05/03 08:36:05;;;;;;;27.08;25.15;;;17.00;99.90;;;;;;5290667;28;20144;-73
2023/05/03 08:38:40;;;;;;;25.52;23.50;;;17.40;99.90;;;;;;5290707;28;20031;-72
2023/05/03 08:41:21;;;;;;;23.65;21.48;;;17.30;99.90;;;;;;5290701;28;20155;-72
2023/05/03 08:43:53;;;;;;;24.35;22.23;;;17.80;99.90;;;;;;5291045;28;20204;-71
2023/05/03 08:46:25;;;;;;;23.00;20.90;;;17.40;99.90;;;;;;5290483;28;20364;-74
2023/05/03 08:48:57;;;;;;;21.70;19.70;;;17.70;99.90;;;;;;5290339;28;20039;-72
2023/05/03 08:51:28;;;;;;;23.00;21.00;;;17.80;99.90;;;;;;5290420;28;20489;-72
2023/05/03 08:53:59;;;;;;;20.98;19.35;;;17.80;99.90;;;;;;5290027;28;20465;-73
2023/05/03 08:56:39;;;;;;;22.00;20.15;;;17.60;99.90;;;;;;5272143;28;20118;-71
2023/05/03 08:59:10;;;;;;;;;;;17.80;99.90;;;;;;5290923;28;20063;-72
2023/05/03 09:01:42;;;;;;;20.42;18.55;;;17.70;99.90;;;;;;5290178;28;20335;-71
2023/05/03 09:04:13;;;;;;;18.17;16.40;;;17.80;99.90;;;;;;5290073;28;20106;-72
2023/05/03 09:06:43;;;;;;;17.92;16.42;;;18.20;99.90;;;;;;5290096;28;20089;-74
2023/05/03 09:09:15;;;;;;;18.50;17.00;;;18.20;99.90;;;;;;5290019;28;20030;-72
2023/05/03 09:11:46;;;;;;;21.48;19.38;;;18.10;99.90;;;;;;5290086;28;20026;-71
2023/05/03 09:14:17;;;;;;;19.02;17.13;;;18.20;99.90;;;;;;5289920;28;20032;-73
2023/05/03 09:16:48;;;;;;;19.63;17.88;;;18.40;99.90;;;;;;5290086;28;20019;-73
2023/05/03 09:19:20;;;;;;;19.63;18.02;;;18.40;99.90;;;;;;5290318;28;20034;-70
2023/05/03 09:21:51;;;;;;;20.70;18.63;;;18.50;99.90;;;;;;5289983;28;20016;-69
2023/05/03 09:24:21;;;;;;;20.00;18.38;;;18.30;99.90;;;;;;5289637;28;20051;-71
2023/05/03 09:26:57;;;;;;;19.52;17.73;;;18.30;99.90;;;;;;5289810;28;20016;-70
2023/05/03 09:29:34;;;;;;;20.23;18.52;;;18.60;99.90;;;;;;5289959;28;20050;-69
2023/05/03 09:32:06;;;;;;;19.10;17.60;;;18.20;99.90;;;;;;5289842;28;20035;-71
2023/05/03 09:34:37;;;;;;;18.92;17.02;;;18.50;99.90;;;;;;5289755;28;20051;-70
2023/05/03 09:37:08;;;;;;;19.77;18.00;;;18.50;99.90;;;;;;5289553;28;20019;-71
2023/05/03 09:39:41;;;;;;;21.00;18.83;;;18.40;99.90;;;;;;5289637;28;20058;-73
2023/05/03 09:42:15;;;;;;;20.05;18.38;;;18.40;99.90;;;;;;5289513;28;20080;-71
2023/05/03 09:44:50;;;;;;;19.77;17.83;;;18.10;99.90;;;;;;5289126;28;20040;-73
2023/05/03 09:47:23;;;;;;;21.70;19.52;;;18.20;99.90;;;;;;5289283;28;20457;-72
2023/05/03 09:49:54;;;;;;;20.25;18.52;;;18.60;99.90;;;;;;5289393;28;20027;-72
2023/05/03 09:52:29;;;;;;;20.92;19.13;;;19.10;99.90;;;;;;5289110;28;20020;-73
2023/05/03 09:55:00;;;;;;;21.90;20.20;;;19.10;99.90;;;;;;5288630;28;20059;-72
2023/05/03 09:57:32;;;;;;;26.13;24.20;;;18.90;99.90;;;;;;5270896;28;20367;-72
2023/05/03 10:00:03;;;;;;;23.55;21.50;;;18.90;99.90;;;;;;5289205;28;20024;-71
2023/05/03 10:02:33;;;;;;;22.35;20.65;;;18.50;99.90;;;;;;5289146;28;20114;-70
2023/05/03 10:05:06;;;;;;;22.67;20.67;;;18.30;99.90;;;;;;5288935;28;20127;-71
2023/05/03 10:07:41;;;;;;;21.25;19.02;;;18.30;99.90;;;;;;5289147;28;20614;-69
2023/05/03 10:10:11;;;;;;;21.42;19.50;;;18.30;99.90;;;;;;5289273;28;20081;-70
2023/05/03 10:12:44;;;;;;;21.13;19.52;;;18.20;99.90;;;;;;5289514;28;20020;-69
2023/05/03 10:15:17;;;;;;;20.90;19.10;;;18.00;99.90;;;;;;5289082;28;20462;-72
2023/05/03 10:17:50;;;;;;;23.55;21.55;;;18.10;99.90;;;;;;5289091;28;20027;-71
2023/05/03 10:20:44;;;;;;;21.50;19.50;;;18.00;99.90;;;;;;5288931;28;20445;-71
2023/05/03 10:23:17;;;;;;;21.20;19.35;;;18.00;99.90;;;;;;5288600;28;20035;-70
2023/05/03 10:26:08;;;;;;;23.15;21.10;;;18.10;99.90;;;;;;5288646;28;20034;-71
2023/05/03 10:28:40;;;;;;;21.48;19.88;;;18.50;99.90;;;;;;5288728;28;20032;-74
2023/05/03 10:31:43;;;;;;;23.30;21.55;;;18.30;99.90;;;;;;5288757;28;20089;-70
2023/05/03 10:34:34;;;;;;;25.73;23.25;;;18.80;99.90;;;;;;5270335;28;20514;-73
2023/05/03 10:37:10;;;;;;;24.58;22.42;;;19.00;99.90;;;;;;5288784;28;20027;-71
2023/05/03 10:39:44;;;;;;;23.63;21.65;;;18.70;99.90;;;;;;5288748;28;20028;-70
2023/05/03 10:42:15;;;;;;;23.10;21.23;;;18.60;99.90;;;;;;5288497;28;20478;-74
2023/05/03 10:44:50;;;;;;;20.00;18.20;;;18.00;99.90;;;;;;5288267;28;20114;-72
2023/05/03 10:47:24;;;;;;;23.13;21.13;;;18.20;99.90;;;;;;5288590;28;20076;-73
2023/05/03 10:50:13;;;;;;;22.08;19.65;;;18.70;99.90;;;;;;5288440;28;20028;-72
2023/05/03 10:52:44;;;;;;;22.03;19.83;;;18.50;99.90;;;;;;5288960;28;20019;-73
2023/05/03 10:55:20;;;;;;;20.70;18.77;;;18.10;99.90;;;;;;5288277;28;20280;-72
2023/05/03 10:57:57;;;;;;;22.23;20.20;;;18.50;99.90;;;;;;5288411;28;20031;-72
2023/05/03 11:00:43;;;;;;;19.73;17.95;;;17.90;99.90;;;;;;5288269;28;20054;-72
2023/05/03 11:03:36;;;;;;;21.70;19.75;;;17.70;99.90;;;;;;5288236;28;20864;-72
2023/05/03 11:06:07;;;;;;;18.73;16.98;;;17.70;99.90;;;;;;5290599;28;20027;-72
2023/05/03 11:08:39;;;;;;;21.08;19.05;;;17.60;99.90;;;;;;5292414;28;20543;-71
2023/05/03 11:11:11;;;;;;;22.75;20.17;;;17.40;99.90;;;;;;5292511;28;20031;-72
2023/05/03 11:13:42;;;;;;;22.75;19.25;;;17.20;99.90;;;;;;5292358;28;20028;-73
2023/05/03 11:16:13;;;;;;;21.27;19.23;;;17.20;99.90;;;;;;5292301;28;20053;-73
2023/05/03 11:18:45;;;;;;;21.63;19.73;;;17.50;99.90;;;;;;5292287;28;20028;-73
2023/05/03 11:21:16;;;;;;;21.63;19.65;;;17.90;99.90;;;;;;5292274;28;20448;-73
2023/05/03 11:23:47;;;;;;;21.92;19.73;;;17.80;99.90;;;;;;5292015;28;20050;-71
2023/05/03 11:26:22;;;;;;;20.92;18.88;;;17.30;99.90;;;;;;5292004;28;20023;-72
2023/05/03 11:28:53;;;;;;;22.10;20.08;;;17.10;99.90;;;;;;5292099;28;20028;-73
2023/05/03 11:31:24;;;;;;;22.40;20.38;;;17.20;99.90;;;;;;5292079;28;20100;-73
2023/05/03 11:33:55;;;;;;;21.98;19.90;;;17.10;99.90;;;;;;5291974;28;20026;-72
2023/05/03 11:36:27;;;;;;;21.35;19.55;;;17.00;99.90;;;;;;5291829;28;20482;-73
2023/05/03 11:38:59;;;;;;;18.23;16.70;;;16.90;99.90;;;;;;5291924;28;20015;-69
2023/05/03 11:41:30;;;;;;;20.38;18.45;;;16.90;99.90;;;;;;5291879;28;20054;-72
2023/05/03 11:44:01;;;;;;;22.25;19.52;;;16.90;99.90;;;;;;5291684;28;20031;-73
2023/05/03 11:46:34;;;;;;;19.15;17.40;;;17.00;99.90;;;;;;5291652;28;20081;-72
2023/05/03 11:49:05;;;;;;;19.45;17.63;;;16.60;99.90;;;;;;5291604;28;20054;-73
2023/05/03 11:51:36;;;;;;;21.33;18.50;;;17.00;99.90;;;;;;5291624;28;20063;-72
2023/05/03 11:54:08;;;;;;;18.90;17.13;;;17.10;99.90;;;;;;5291480;28;20081;-73
2023/05/03 11:56:38;;;;;;;22.15;16.80;;;17.20;99.90;;;;;;5291867;28;20421;-70
2023/05/03 11:59:09;;;;;;;20.60;18.88;;;17.00;99.90;;;;;;5291508;28;20038;-70
2023/05/03 12:01:41;;;;;;;22.70;18.60;;;17.00;99.90;;;;;;5291560;28;20094;-73
2023/05/03 12:04:13;;;;;;;19.98;18.13;;;16.70;99.90;;;;;;5291432;28;20035;-71
2023/05/03 12:06:51;;;;;;;20.25;18.52;;;16.30;99.90;;;;;;5291343;28;20027;-74
2023/05/03 12:09:24;;;;;;;20.10;18.15;;;16.20;99.90;;;;;;5291350;28;20015;-73
2023/05/03 12:11:55;;;;;;;21.60;18.52;;;16.30;99.90;;;;;;5291383;28;20057;-73
2023/05/03 12:14:26;;;;;;;21.38;19.38;;;16.50;99.90;;;;;;5291035;28;20057;-73
2023/05/03 12:16:57;;;;;;;22.20;20.25;;;16.70;99.90;;;;;;5290666;28;20032;-73
2023/05/03 12:19:29;;;;;;;21.65;18.63;;;16.70;99.90;;;;;;5291021;28;20020;-73
2023/05/03 12:22:00;;;;;;;20.65;18.48;;;16.70;99.90;;;;;;5291069;28;20027;-72
2023/05/03 12:24:31;;;;;;;20.52;18.50;;;16.30;99.90;;;;;;5290786;28;20490;-72
2023/05/03 12:27:02;;;;;;;19.58;17.67;;;16.30;99.90;;;;;;5290826;28;20030;-72
2023/05/03 12:29:33;;;;;;;20.55;18.60;;;16.50;99.90;;;;;;5290944;28;20043;-73
2023/05/03 12:32:04;;;;;;;19.88;17.95;;;16.60;99.90;;;;;;5290798;28;20041;-72
2023/05/03 12:34:35;;;;;;;19.20;17.27;;;16.70;99.90;;;;;;5290643;28;20050;-73
2023/05/03 12:37:06;;;;;;;21.38;19.13;;;16.80;99.90;;;;;;5290693;28;20028;-72
2023/05/03 12:39:37;;;;;;;19.98;18.20;;;16.80;99.90;;;;;;5290694;28;20028;-71
2023/05/03 12:42:08;;;;;;;20.92;18.92;;;16.60;99.90;;;;;;5290801;28;20046;-73
2023/05/03 12:44:39;;;;;;;21.25;18.42;;;16.60;99.90;;;;;;5290213;28;20088;-73
2023/05/03 12:47:11;;;;;;;20.63;18.55;;;16.50;99.90;;;;;;5290479;28;20055;-72
2023/05/03 12:49:42;;;;;;;19.80;18.08;;;16.40;99.90;;;;;;5290558;28;20027;-72
2023/05/03 12:52:12;;;;;;;18.35;15.65;;;16.40;99.90;;;;;;5290462;28;20039;-73
2023/05/03 12:54:45;;;;;;;21.85;18.52;;;16.30;99.90;;;;;;5290407;28;20055;-71
2023/05/03 12:57:16;;;;;;;22.02;19.63;;;16.30;99.90;;;;;;5290383;28;20097;-72
2023/05/03 12:59:51;;;;;;;21.25;19.35;;;16.10;99.90;;;;;;5290353;28;20033;-72
2023/05/03 13:02:22;;;;;;;20.92;18.20;;;16.00;99.90;;;;;;5290344;28;20047;-71
2023/05/03 13:04:56;;;;;;;20.48;18.35;;;16.00;99.90;;;;;;5290159;28;20118;-72
2023/05/03 13:07:28;;;;;;;21.83;19.80;;;15.90;99.90;;;;;;5290309;28;20412;-72
2023/05/03 13:09:59;;;;;;;19.35;17.45;;;16.00;99.90;;;;;;5290189;28;20031;-72
2023/05/03 13:12:32;;;;;;;23.73;19.58;;;15.90;99.90;;;;;;5290244;28;20023;-73
2023/05/03 13:15:03;;;;;;;26.38;23.65;;;16.00;99.90;;;;;;5290091;28;20031;-72
2023/05/03 13:17:34;;;;;;;24.40;21.88;;;16.10;99.90;;;;;;5290058;28;20445;-73
2023/05/03 13:20:07;;;;;;;21.63;19.63;;;15.80;99.90;;;;;;5289847;28;20051;-72
2023/05/03 13:22:38;;;;;;;22.42;20.38;;;15.80;99.90;;;;;;5289910;28;20024;-72
2023/05/03 13:25:09;;;;;;;23.30;21.00;;;15.80;99.90;;;;;;5289668;28;20047;-71
2023/05/03 13:27:40;;;;;;;23.38;20.92;;;15.50;99.90;;;;;;5270722;28;20060;-73
2023/05/03 13:30:13;;;;;;;25.85;23.30;;;15.30;99.90;;;;;;5289791;28;20023;-73
2023/05/03 13:32:44;;;;;;;25.25;22.75;;;15.50;99.90;;;;;;5289547;28;20019;-73
2023/05/03 13:35:16;;;;;;;24.40;19.90;;;15.60;99.90;;;;;;5289517;28;20038;-73
2023/05/03 13:37:47;;;;;;;24.80;22.42;;;15.80;99.90;;;;;;5289603;28;20024;-72
2023/05/03 13:40:18;;;;;;;22.77;20.52;;;15.90;99.90;;;;;;5289718;28;20042;-72
2023/05/03 13:42:48;;;;;;;24.52;22.30;;;15.80;99.90;;;;;;5289831;28;20092;-72
2023/05/03 13:45:19;;;;;;;20.45;18.27;;;15.90;99.90;;;;;;5289887;28;20039;-73
2023/05/03 13:47:50;;;;;;;24.48;21.90;;;15.80;99.90;;;;;;5289886;28;20031;-73
2023/05/03 13:50:21;;;;;;;25.17;21.67;;;16.00;99.90;;;;;;5289695;28;20020;-73
2023/05/03 13:52:53;;;;;;;22.30;20.10;;;16.00;99.90;;;;;;5289384;28;20110;-72
2023/05/03 13:55:25;;;;;;;20.25;18.13;;;16.20;99.90;;;;;;5289165;28;20055;-72
2023/05/03 13:57:56;;;;;;;23.33;18.45;;;16.10;99.90;;;;;;5289445;28;20339;-73
2023/05/03 14:00:27;;;;;;;25.75;19.63;;;16.00;99.90;;;;;;5289122;28;20023;-72